Terminal Aerodrome Forecast
Issued by NWS Cleveland, OH

Home | Current Version | Previous Version | Text Only | Print | Product List | Glossary On
Versions: 1 2 3 4 5 6 7 8 9 10 11 12 13 14 15 16 17 18
000
FTUS41 KCLE 281132
TAFTOL
TAF
KTOL 281132Z 2812/2912 03006KT P6SM SKC
     FM281800 08008KT P6SM FEW040
     FM290000 09005KT P6SM FEW060
     FM290900 11003KT 6SM BR BKN060=

USA.gov is the U.S. government's official web portal to all federal, state and local government web resources and services.